<?xml version="1.0" encoding="UTF-8" standalone="no" ?>
<gpx xmlns="http://www.topografix.com/GPX/1/1" xmlns:xsi="http://www.w3.org/2001/XMLSchema-instance" xsi:schemaLocation="http://www.topografix.com/GPX/1/1 http://www.topografix.com/GPX/1/1/gpx.xsd" version="1.1" creator="VisuGPX - https://www.visugpx.com">
  <metadata>
    <name>Puy de Côme - Petit Suchet 12.5km- 474</name>
  </metadata>
  <trk>
    <name><![CDATA[14413108-Puy de Côme - Petit Suchet 12.5km- 474]]></name>
    <trkseg>
      <trkpt lat="45.80423" lon="2.98614">
        <ele>979</ele>
        <time>2022-03-16T07:46:00Z</time>
      </trkpt>
      <trkpt lat="45.80395" lon="2.98539">
        <ele>979</ele>
        <time>2022-03-16T07:47:19Z</time>
      </trkpt>
      <trkpt lat="45.8037" lon="2.98522">
        <ele>979</ele>
        <time>2022-03-16T07:47:56Z</time>
      </trkpt>
      <trkpt lat="45.80327" lon="2.98447">
        <ele>981</ele>
        <time>2022-03-16T07:49:26Z</time>
      </trkpt>
      <trkpt lat="45.80346" lon="2.98438">
        <ele>981</ele>
        <time>2022-03-16T07:49:53Z</time>
      </trkpt>
      <trkpt lat="45.80369" lon="2.98411">
        <ele>982</ele>
        <time>2022-03-16T07:50:33Z</time>
      </trkpt>
      <trkpt lat="45.80367" lon="2.98385">
        <ele>983</ele>
        <time>2022-03-16T07:50:57Z</time>
      </trkpt>
      <trkpt lat="45.80349" lon="2.98355">
        <ele>985</ele>
        <time>2022-03-16T07:51:34Z</time>
      </trkpt>
      <trkpt lat="45.80341" lon="2.98277">
        <ele>990</ele>
        <time>2022-03-16T07:52:47Z</time>
      </trkpt>
      <trkpt lat="45.80374" lon="2.98234">
        <ele>991</ele>
        <time>2022-03-16T07:53:47Z</time>
      </trkpt>
      <trkpt lat="45.80378" lon="2.98199">
        <ele>993</ele>
        <time>2022-03-16T07:54:20Z</time>
      </trkpt>
      <trkpt lat="45.8038" lon="2.9816">
        <ele>995</ele>
        <time>2022-03-16T07:54:56Z</time>
      </trkpt>
      <trkpt lat="45.80392" lon="2.98129">
        <ele>997</ele>
        <time>2022-03-16T07:55:29Z</time>
      </trkpt>
      <trkpt lat="45.80394" lon="2.98102">
        <ele>999</ele>
        <time>2022-03-16T07:55:54Z</time>
      </trkpt>
      <trkpt lat="45.80432" lon="2.97989">
        <ele>1010</ele>
        <time>2022-03-16T07:57:51Z</time>
      </trkpt>
      <trkpt lat="45.80434" lon="2.97967">
        <ele>1011</ele>
        <time>2022-03-16T07:58:12Z</time>
      </trkpt>
      <trkpt lat="45.80445" lon="2.97927">
        <ele>1014</ele>
        <time>2022-03-16T07:58:52Z</time>
      </trkpt>
      <trkpt lat="45.80445" lon="2.97914">
        <ele>1015</ele>
        <time>2022-03-16T07:59:04Z</time>
      </trkpt>
      <trkpt lat="45.80457" lon="2.97828">
        <ele>1021</ele>
        <time>2022-03-16T08:00:25Z</time>
      </trkpt>
      <trkpt lat="45.80457" lon="2.97792">
        <ele>1022</ele>
        <time>2022-03-16T08:00:59Z</time>
      </trkpt>
      <trkpt lat="45.80459" lon="2.97694">
        <ele>1026</ele>
        <time>2022-03-16T08:02:30Z</time>
      </trkpt>
      <trkpt lat="45.80458" lon="2.97661">
        <ele>1026</ele>
        <time>2022-03-16T08:03:01Z</time>
      </trkpt>
      <trkpt lat="45.80455" lon="2.97645">
        <ele>1026</ele>
        <time>2022-03-16T08:03:16Z</time>
      </trkpt>
      <trkpt lat="45.80461" lon="2.97602">
        <ele>1025</ele>
        <time>2022-03-16T08:03:57Z</time>
      </trkpt>
      <trkpt lat="45.80456" lon="2.97546">
        <ele>1022</ele>
        <time>2022-03-16T08:04:50Z</time>
      </trkpt>
      <trkpt lat="45.80431" lon="2.9749">
        <ele>1022</ele>
        <time>2022-03-16T08:05:51Z</time>
      </trkpt>
      <trkpt lat="45.80391" lon="2.97423">
        <ele>1030</ele>
        <time>2022-03-16T08:07:13Z</time>
      </trkpt>
      <trkpt lat="45.8038" lon="2.97369">
        <ele>1034</ele>
        <time>2022-03-16T08:08:06Z</time>
      </trkpt>
      <trkpt lat="45.8036" lon="2.97157">
        <ele>1042</ele>
        <time>2022-03-16T08:11:25Z</time>
      </trkpt>
      <trkpt lat="45.80328" lon="2.97">
        <ele>1043</ele>
        <time>2022-03-16T08:13:57Z</time>
      </trkpt>
      <trkpt lat="45.80268" lon="2.96808">
        <ele>1048</ele>
        <time>2022-03-16T08:17:13Z</time>
      </trkpt>
      <trkpt lat="45.80216" lon="2.96671">
        <ele>1047</ele>
        <time>2022-03-16T08:19:38Z</time>
      </trkpt>
      <trkpt lat="45.80263" lon="2.96732">
        <ele>1046</ele>
        <time>2022-03-16T08:21:02Z</time>
      </trkpt>
      <trkpt lat="45.80247" lon="2.96686">
        <ele>1045</ele>
        <time>2022-03-16T08:21:50Z</time>
      </trkpt>
      <trkpt lat="45.80218" lon="2.96649">
        <ele>1047</ele>
        <time>2022-03-16T08:22:42Z</time>
      </trkpt>
      <trkpt lat="45.80177" lon="2.96556">
        <ele>1046</ele>
        <time>2022-03-16T08:24:24Z</time>
      </trkpt>
      <trkpt lat="45.80145" lon="2.96456">
        <ele>1047</ele>
        <time>2022-03-16T08:26:07Z</time>
      </trkpt>
      <trkpt lat="45.80126" lon="2.96433">
        <ele>1047</ele>
        <time>2022-03-16T08:26:40Z</time>
      </trkpt>
      <trkpt lat="45.80098" lon="2.9635">
        <ele>1045</ele>
        <time>2022-03-16T08:28:06Z</time>
      </trkpt>
      <trkpt lat="45.80047" lon="2.96237">
        <ele>1042</ele>
        <time>2022-03-16T08:30:11Z</time>
      </trkpt>
      <trkpt lat="45.80021" lon="2.96133">
        <ele>1040</ele>
        <time>2022-03-16T08:31:54Z</time>
      </trkpt>
      <trkpt lat="45.80009" lon="2.96094">
        <ele>1040</ele>
        <time>2022-03-16T08:32:33Z</time>
      </trkpt>
      <trkpt lat="45.80022" lon="2.95964">
        <ele>1032</ele>
        <time>2022-03-16T08:34:36Z</time>
      </trkpt>
      <trkpt lat="45.80017" lon="2.95794">
        <ele>1023</ele>
        <time>2022-03-16T08:37:14Z</time>
      </trkpt>
      <trkpt lat="45.8001" lon="2.95721">
        <ele>1018</ele>
        <time>2022-03-16T08:38:22Z</time>
      </trkpt>
      <trkpt lat="45.79986" lon="2.95612">
        <ele>1014</ele>
        <time>2022-03-16T08:40:09Z</time>
      </trkpt>
      <trkpt lat="45.79922" lon="2.95502">
        <ele>1008</ele>
        <time>2022-03-16T08:42:22Z</time>
      </trkpt>
      <trkpt lat="45.79894" lon="2.95447">
        <ele>1006</ele>
        <time>2022-03-16T08:43:25Z</time>
      </trkpt>
      <trkpt lat="45.79853" lon="2.95405">
        <ele>1005</ele>
        <time>2022-03-16T08:44:33Z</time>
      </trkpt>
      <trkpt lat="45.798" lon="2.95365">
        <ele>1006</ele>
        <time>2022-03-16T08:45:53Z</time>
      </trkpt>
      <trkpt lat="45.79785" lon="2.95319">
        <ele>1005</ele>
        <time>2022-03-16T08:46:40Z</time>
      </trkpt>
      <trkpt lat="45.79731" lon="2.95281">
        <ele>1006</ele>
        <time>2022-03-16T08:48:00Z</time>
      </trkpt>
      <trkpt lat="45.79664" lon="2.95189">
        <ele>1008</ele>
        <time>2022-03-16T08:50:04Z</time>
      </trkpt>
      <trkpt lat="45.79598" lon="2.95073">
        <ele>1014</ele>
        <time>2022-03-16T08:52:23Z</time>
      </trkpt>
      <trkpt lat="45.7956" lon="2.95026">
        <ele>1020</ele>
        <time>2022-03-16T08:53:30Z</time>
      </trkpt>
      <trkpt lat="45.79548" lon="2.94976">
        <ele>1023</ele>
        <time>2022-03-16T08:54:19Z</time>
      </trkpt>
      <trkpt lat="45.79523" lon="2.94933">
        <ele>1025</ele>
        <time>2022-03-16T08:55:11Z</time>
      </trkpt>
      <trkpt lat="45.79481" lon="2.94895">
        <ele>1028</ele>
        <time>2022-03-16T08:56:18Z</time>
      </trkpt>
      <trkpt lat="45.79363" lon="2.94739">
        <ele>1034</ele>
        <time>2022-03-16T08:59:52Z</time>
      </trkpt>
      <trkpt lat="45.79287" lon="2.9461">
        <ele>1037</ele>
        <time>2022-03-16T09:02:29Z</time>
      </trkpt>
      <trkpt lat="45.79237" lon="2.94482">
        <ele>1037</ele>
        <time>2022-03-16T09:04:46Z</time>
      </trkpt>
      <trkpt lat="45.79188" lon="2.94299">
        <ele>1038</ele>
        <time>2022-03-16T09:07:48Z</time>
      </trkpt>
      <trkpt lat="45.79168" lon="2.94143">
        <ele>1034</ele>
        <time>2022-03-16T09:10:16Z</time>
      </trkpt>
      <trkpt lat="45.79168" lon="2.94019">
        <ele>1030</ele>
        <time>2022-03-16T09:12:11Z</time>
      </trkpt>
      <trkpt lat="45.79186" lon="2.93962">
        <ele>1032</ele>
        <time>2022-03-16T09:13:09Z</time>
      </trkpt>
      <trkpt lat="45.79208" lon="2.93942">
        <ele>1037</ele>
        <time>2022-03-16T09:13:44Z</time>
      </trkpt>
      <trkpt lat="45.79239" lon="2.93875">
        <ele>1038</ele>
        <time>2022-03-16T09:14:59Z</time>
      </trkpt>
      <trkpt lat="45.79273" lon="2.93814">
        <ele>1043</ele>
        <time>2022-03-16T09:16:11Z</time>
      </trkpt>
      <trkpt lat="45.79344" lon="2.93727">
        <ele>1056</ele>
        <time>2022-03-16T09:18:16Z</time>
      </trkpt>
      <trkpt lat="45.79461" lon="2.9367">
        <ele>1092</ele>
        <time>2022-03-16T09:21:01Z</time>
      </trkpt>
      <trkpt lat="45.79536" lon="2.93665">
        <ele>1112</ele>
        <time>2022-03-16T09:22:41Z</time>
      </trkpt>
      <trkpt lat="45.79613" lon="2.93691">
        <ele>1132</ele>
        <time>2022-03-16T09:24:27Z</time>
      </trkpt>
      <trkpt lat="45.79664" lon="2.9374">
        <ele>1148</ele>
        <time>2022-03-16T09:25:49Z</time>
      </trkpt>
      <trkpt lat="45.79691" lon="2.93783">
        <ele>1155</ele>
        <time>2022-03-16T09:26:42Z</time>
      </trkpt>
      <trkpt lat="45.79697" lon="2.93811">
        <ele>1160</ele>
        <time>2022-03-16T09:27:10Z</time>
      </trkpt>
      <trkpt lat="45.79691" lon="2.93845">
        <ele>1167</ele>
        <time>2022-03-16T09:27:42Z</time>
      </trkpt>
      <trkpt lat="45.79708" lon="2.93906">
        <ele>1174</ele>
        <time>2022-03-16T09:28:43Z</time>
      </trkpt>
      <trkpt lat="45.79708" lon="2.93973">
        <ele>1184</ele>
        <time>2022-03-16T09:29:46Z</time>
      </trkpt>
      <trkpt lat="45.7974" lon="2.93999">
        <ele>1186</ele>
        <time>2022-03-16T09:30:35Z</time>
      </trkpt>
      <trkpt lat="45.79775" lon="2.94069">
        <ele>1195</ele>
        <time>2022-03-16T09:31:55Z</time>
      </trkpt>
      <trkpt lat="45.7977" lon="2.94166">
        <ele>1212</ele>
        <time>2022-03-16T09:33:25Z</time>
      </trkpt>
      <trkpt lat="45.79756" lon="2.94231">
        <ele>1227</ele>
        <time>2022-03-16T09:34:29Z</time>
      </trkpt>
      <trkpt lat="45.79698" lon="2.94277">
        <ele>1233</ele>
        <time>2022-03-16T09:35:57Z</time>
      </trkpt>
      <trkpt lat="45.79677" lon="2.94271">
        <ele>1233</ele>
        <time>2022-03-16T09:36:26Z</time>
      </trkpt>
      <trkpt lat="45.79641" lon="2.9429">
        <ele>1228</ele>
        <time>2022-03-16T09:37:17Z</time>
      </trkpt>
      <trkpt lat="45.79575" lon="2.94286">
        <ele>1213</ele>
        <time>2022-03-16T09:38:45Z</time>
      </trkpt>
      <trkpt lat="45.79531" lon="2.94318">
        <ele>1189</ele>
        <time>2022-03-16T09:39:51Z</time>
      </trkpt>
      <trkpt lat="45.79434" lon="2.94416">
        <ele>1130</ele>
        <time>2022-03-16T09:42:29Z</time>
      </trkpt>
      <trkpt lat="45.7942" lon="2.94458">
        <ele>1115</ele>
        <time>2022-03-16T09:43:13Z</time>
      </trkpt>
      <trkpt lat="45.79382" lon="2.94505">
        <ele>1086</ele>
        <time>2022-03-16T09:44:20Z</time>
      </trkpt>
      <trkpt lat="45.7935" lon="2.94541">
        <ele>1064</ele>
        <time>2022-03-16T09:45:14Z</time>
      </trkpt>
      <trkpt lat="45.79286" lon="2.94611">
        <ele>1037</ele>
        <time>2022-03-16T09:47:01Z</time>
      </trkpt>
      <trkpt lat="45.79237" lon="2.94548">
        <ele>1034</ele>
        <time>2022-03-16T09:48:29Z</time>
      </trkpt>
      <trkpt lat="45.79195" lon="2.94486">
        <ele>1036</ele>
        <time>2022-03-16T09:49:49Z</time>
      </trkpt>
      <trkpt lat="45.7914" lon="2.94434">
        <ele>1038</ele>
        <time>2022-03-16T09:51:17Z</time>
      </trkpt>
      <trkpt lat="45.79081" lon="2.94429">
        <ele>1042</ele>
        <time>2022-03-16T09:52:36Z</time>
      </trkpt>
      <trkpt lat="45.79038" lon="2.94411">
        <ele>1045</ele>
        <time>2022-03-16T09:53:36Z</time>
      </trkpt>
      <trkpt lat="45.78972" lon="2.94402">
        <ele>1050</ele>
        <time>2022-03-16T09:55:05Z</time>
      </trkpt>
      <trkpt lat="45.78919" lon="2.94403">
        <ele>1051</ele>
        <time>2022-03-16T09:56:15Z</time>
      </trkpt>
      <trkpt lat="45.78887" lon="2.94403">
        <ele>1050</ele>
        <time>2022-03-16T09:56:58Z</time>
      </trkpt>
      <trkpt lat="45.78785" lon="2.94453">
        <ele>1043</ele>
        <time>2022-03-16T09:59:22Z</time>
      </trkpt>
      <trkpt lat="45.78709" lon="2.9444">
        <ele>1040</ele>
        <time>2022-03-16T10:01:04Z</time>
      </trkpt>
      <trkpt lat="45.7868" lon="2.94479">
        <ele>1039</ele>
        <time>2022-03-16T10:01:57Z</time>
      </trkpt>
      <trkpt lat="45.78648" lon="2.94519">
        <ele>1041</ele>
        <time>2022-03-16T10:02:54Z</time>
      </trkpt>
      <trkpt lat="45.78625" lon="2.94569">
        <ele>1044</ele>
        <time>2022-03-16T10:03:49Z</time>
      </trkpt>
      <trkpt lat="45.78604" lon="2.94624">
        <ele>1046</ele>
        <time>2022-03-16T10:04:48Z</time>
      </trkpt>
      <trkpt lat="45.78615" lon="2.9473">
        <ele>1048</ele>
        <time>2022-03-16T10:06:27Z</time>
      </trkpt>
      <trkpt lat="45.78619" lon="2.94793">
        <ele>1050</ele>
        <time>2022-03-16T10:07:26Z</time>
      </trkpt>
      <trkpt lat="45.7865" lon="2.94937">
        <ele>1057</ele>
        <time>2022-03-16T10:09:47Z</time>
      </trkpt>
      <trkpt lat="45.78622" lon="2.95027">
        <ele>1063</ele>
        <time>2022-03-16T10:11:18Z</time>
      </trkpt>
      <trkpt lat="45.78631" lon="2.95109">
        <ele>1069</ele>
        <time>2022-03-16T10:12:36Z</time>
      </trkpt>
      <trkpt lat="45.78625" lon="2.95187">
        <ele>1074</ele>
        <time>2022-03-16T10:13:49Z</time>
      </trkpt>
      <trkpt lat="45.78608" lon="2.95327">
        <ele>1072</ele>
        <time>2022-03-16T10:16:01Z</time>
      </trkpt>
      <trkpt lat="45.78608" lon="2.95413">
        <ele>1071</ele>
        <time>2022-03-16T10:17:21Z</time>
      </trkpt>
      <trkpt lat="45.78596" lon="2.95494">
        <ele>1069</ele>
        <time>2022-03-16T10:18:38Z</time>
      </trkpt>
      <trkpt lat="45.78589" lon="2.95587">
        <ele>1067</ele>
        <time>2022-03-16T10:20:05Z</time>
      </trkpt>
      <trkpt lat="45.78584" lon="2.95633">
        <ele>1067</ele>
        <time>2022-03-16T10:20:48Z</time>
      </trkpt>
      <trkpt lat="45.78587" lon="2.9582">
        <ele>1073</ele>
        <time>2022-03-16T10:23:42Z</time>
      </trkpt>
      <trkpt lat="45.78593" lon="2.95891">
        <ele>1077</ele>
        <time>2022-03-16T10:24:49Z</time>
      </trkpt>
      <trkpt lat="45.78628" lon="2.96025">
        <ele>1088</ele>
        <time>2022-03-16T10:27:02Z</time>
      </trkpt>
      <trkpt lat="45.78653" lon="2.96102">
        <ele>1095</ele>
        <time>2022-03-16T10:28:21Z</time>
      </trkpt>
      <trkpt lat="45.78713" lon="2.96223">
        <ele>1115</ele>
        <time>2022-03-16T10:30:39Z</time>
      </trkpt>
      <trkpt lat="45.78757" lon="2.96335">
        <ele>1129</ele>
        <time>2022-03-16T10:32:39Z</time>
      </trkpt>
      <trkpt lat="45.78793" lon="2.96391">
        <ele>1134</ele>
        <time>2022-03-16T10:33:50Z</time>
      </trkpt>
      <trkpt lat="45.78817" lon="2.96454">
        <ele>1136</ele>
        <time>2022-03-16T10:34:57Z</time>
      </trkpt>
      <trkpt lat="45.78873" lon="2.96401">
        <ele>1143</ele>
        <time>2022-03-16T10:36:26Z</time>
      </trkpt>
      <trkpt lat="45.78914" lon="2.96285">
        <ele>1163</ele>
        <time>2022-03-16T10:38:27Z</time>
      </trkpt>
      <trkpt lat="45.78923" lon="2.96256">
        <ele>1169</ele>
        <time>2022-03-16T10:38:57Z</time>
      </trkpt>
      <trkpt lat="45.78938" lon="2.96232">
        <ele>1175</ele>
        <time>2022-03-16T10:39:27Z</time>
      </trkpt>
      <trkpt lat="45.78936" lon="2.96197">
        <ele>1178</ele>
        <time>2022-03-16T10:39:59Z</time>
      </trkpt>
      <trkpt lat="45.78944" lon="2.9615">
        <ele>1184</ele>
        <time>2022-03-16T10:40:44Z</time>
      </trkpt>
      <trkpt lat="45.78959" lon="2.96136">
        <ele>1186</ele>
        <time>2022-03-16T10:41:08Z</time>
      </trkpt>
      <trkpt lat="45.78959" lon="2.96102">
        <ele>1186</ele>
        <time>2022-03-16T10:41:40Z</time>
      </trkpt>
      <trkpt lat="45.78972" lon="2.96044">
        <ele>1184</ele>
        <time>2022-03-16T10:42:37Z</time>
      </trkpt>
      <trkpt lat="45.79006" lon="2.95892">
        <ele>1169</ele>
        <time>2022-03-16T10:45:05Z</time>
      </trkpt>
      <trkpt lat="45.79221" lon="2.96015">
        <ele>1125</ele>
        <time>2022-03-16T10:50:14Z</time>
      </trkpt>
      <trkpt lat="45.79237" lon="2.9601">
        <ele>1121</ele>
        <time>2022-03-16T10:50:36Z</time>
      </trkpt>
      <trkpt lat="45.79229" lon="2.96089">
        <ele>1120</ele>
        <time>2022-03-16T10:51:50Z</time>
      </trkpt>
      <trkpt lat="45.79253" lon="2.96214">
        <ele>1110</ele>
        <time>2022-03-16T10:53:51Z</time>
      </trkpt>
      <trkpt lat="45.79297" lon="2.96364">
        <ele>1100</ele>
        <time>2022-03-16T10:56:22Z</time>
      </trkpt>
      <trkpt lat="45.79347" lon="2.96472">
        <ele>1084</ele>
        <time>2022-03-16T10:58:23Z</time>
      </trkpt>
      <trkpt lat="45.79371" lon="2.96574">
        <ele>1075</ele>
        <time>2022-03-16T11:00:03Z</time>
      </trkpt>
      <trkpt lat="45.79401" lon="2.96676">
        <ele>1076</ele>
        <time>2022-03-16T11:01:46Z</time>
      </trkpt>
      <trkpt lat="45.79444" lon="2.96585">
        <ele>1072</ele>
        <time>2022-03-16T11:03:28Z</time>
      </trkpt>
      <trkpt lat="45.79495" lon="2.96511">
        <ele>1076</ele>
        <time>2022-03-16T11:05:05Z</time>
      </trkpt>
      <trkpt lat="45.79569" lon="2.96446">
        <ele>1083</ele>
        <time>2022-03-16T11:07:01Z</time>
      </trkpt>
      <trkpt lat="45.79658" lon="2.96412">
        <ele>1082</ele>
        <time>2022-03-16T11:09:04Z</time>
      </trkpt>
      <trkpt lat="45.79759" lon="2.96404">
        <ele>1080</ele>
        <time>2022-03-16T11:11:19Z</time>
      </trkpt>
      <trkpt lat="45.79847" lon="2.96429">
        <ele>1073</ele>
        <time>2022-03-16T11:13:18Z</time>
      </trkpt>
      <trkpt lat="45.79911" lon="2.96463">
        <ele>1064</ele>
        <time>2022-03-16T11:14:50Z</time>
      </trkpt>
      <trkpt lat="45.79986" lon="2.96489">
        <ele>1056</ele>
        <time>2022-03-16T11:16:32Z</time>
      </trkpt>
      <trkpt lat="45.80093" lon="2.96539">
        <ele>1049</ele>
        <time>2022-03-16T11:19:03Z</time>
      </trkpt>
      <trkpt lat="45.80105" lon="2.96567">
        <ele>1050</ele>
        <time>2022-03-16T11:19:33Z</time>
      </trkpt>
      <trkpt lat="45.80134" lon="2.96593">
        <ele>1049</ele>
        <time>2022-03-16T11:20:19Z</time>
      </trkpt>
      <trkpt lat="45.80209" lon="2.96663">
        <ele>1047</ele>
        <time>2022-03-16T11:22:18Z</time>
      </trkpt>
      <trkpt lat="45.80275" lon="2.9683">
        <ele>1048</ele>
        <time>2022-03-16T11:25:17Z</time>
      </trkpt>
      <trkpt lat="45.8032" lon="2.96983">
        <ele>1045</ele>
        <time>2022-03-16T11:27:51Z</time>
      </trkpt>
      <trkpt lat="45.80358" lon="2.97141">
        <ele>1043</ele>
        <time>2022-03-16T11:30:27Z</time>
      </trkpt>
      <trkpt lat="45.80378" lon="2.97356">
        <ele>1035</ele>
        <time>2022-03-16T11:33:49Z</time>
      </trkpt>
      <trkpt lat="45.80387" lon="2.97409">
        <ele>1031</ele>
        <time>2022-03-16T11:34:39Z</time>
      </trkpt>
      <trkpt lat="45.80425" lon="2.9748">
        <ele>1023</ele>
        <time>2022-03-16T11:36:03Z</time>
      </trkpt>
      <trkpt lat="45.80451" lon="2.97528">
        <ele>1021</ele>
        <time>2022-03-16T11:36:59Z</time>
      </trkpt>
      <trkpt lat="45.8046" lon="2.97588">
        <ele>1025</ele>
        <time>2022-03-16T11:37:56Z</time>
      </trkpt>
      <trkpt lat="45.80457" lon="2.97718">
        <ele>1025</ele>
        <time>2022-03-16T11:39:57Z</time>
      </trkpt>
      <trkpt lat="45.80456" lon="2.97806">
        <ele>1021</ele>
        <time>2022-03-16T11:41:19Z</time>
      </trkpt>
      <trkpt lat="45.80453" lon="2.97861">
        <ele>1018</ele>
        <time>2022-03-16T11:42:10Z</time>
      </trkpt>
      <trkpt lat="45.80451" lon="2.97889">
        <ele>1016</ele>
        <time>2022-03-16T11:42:37Z</time>
      </trkpt>
      <trkpt lat="45.80404" lon="2.98083">
        <ele>1001</ele>
        <time>2022-03-16T11:45:48Z</time>
      </trkpt>
      <trkpt lat="45.80382" lon="2.9816">
        <ele>995</ele>
        <time>2022-03-16T11:47:05Z</time>
      </trkpt>
      <trkpt lat="45.80379" lon="2.9822">
        <ele>991</ele>
        <time>2022-03-16T11:48:01Z</time>
      </trkpt>
      <trkpt lat="45.80343" lon="2.98278">
        <ele>990</ele>
        <time>2022-03-16T11:49:13Z</time>
      </trkpt>
      <trkpt lat="45.80346" lon="2.9835">
        <ele>985</ele>
        <time>2022-03-16T11:50:20Z</time>
      </trkpt>
      <trkpt lat="45.80369" lon="2.98391">
        <ele>983</ele>
        <time>2022-03-16T11:51:09Z</time>
      </trkpt>
      <trkpt lat="45.80357" lon="2.98428">
        <ele>981</ele>
        <time>2022-03-16T11:51:47Z</time>
      </trkpt>
      <trkpt lat="45.8033" lon="2.98453">
        <ele>981</ele>
        <time>2022-03-16T11:52:30Z</time>
      </trkpt>
      <trkpt lat="45.80372" lon="2.98523">
        <ele>979</ele>
        <time>2022-03-16T11:53:56Z</time>
      </trkpt>
      <trkpt lat="45.80398" lon="2.98545">
        <ele>979</ele>
        <time>2022-03-16T11:54:36Z</time>
      </trkpt>
      <trkpt lat="45.80432" lon="2.98638">
        <ele>979</ele>
        <time>2022-03-16T11:56:14Z</time>
      </trkpt>
    </trkseg>
  </trk>
</gpx>